createdAt,value
2019-05-17T00:00:18.810Z,11.16
2019-05-17T00:02:47.318Z,11.19
2019-05-17T00:05:17.788Z,11.19
2019-05-17T00:07:47.470Z,11.15
2019-05-17T00:10:17.385Z,11.16
2019-05-17T00:12:47.121Z,11.20
2019-05-17T00:15:16.928Z,11.16
2019-05-17T00:17:46.962Z,11.15
2019-05-17T00:20:17.430Z,11.14
2019-05-17T00:22:47.107Z,11.13
2019-05-17T00:25:17.609Z,11.09
2019-05-17T00:27:47.373Z,10.89
2019-05-17T00:30:17.766Z,10.91
2019-05-17T00:32:47.617Z,10.95
2019-05-17T00:35:17.791Z,10.93
2019-05-17T00:37:46.717Z,10.94
2019-05-17T00:40:16.687Z,10.96
2019-05-17T00:42:46.641Z,10.95
2019-05-17T00:45:17.293Z,10.94
2019-05-17T00:47:46.873Z,10.91
2019-05-17T00:50:16.984Z,10.72
2019-05-17T00:52:47.550Z,10.51
2019-05-17T00:55:17.555Z,10.46
2019-05-17T00:57:47.496Z,10.51
2019-05-17T01:00:17.341Z,10.54
2019-05-17T01:02:46.776Z,10.57
2019-05-17T01:05:17.196Z,10.61
2019-05-17T01:07:47.031Z,10.63
2019-05-17T01:10:16.616Z,10.67
2019-05-17T01:12:45.269Z,10.65
2019-05-17T01:15:16.576Z,10.64
2019-05-17T01:17:47.104Z,10.48
2019-05-17T01:20:17.144Z,10.37
2019-05-17T01:22:47.489Z,10.44
2019-05-17T01:25:17.119Z,10.48
2019-05-17T01:27:47.505Z,10.56
2019-05-17T01:30:17.558Z,10.63
2019-05-17T01:32:46.557Z,10.61
2019-05-17T01:35:16.828Z,10.58
2019-05-17T01:37:47.469Z,10.49
2019-05-17T01:40:17.591Z,10.54
2019-05-17T01:42:46.679Z,10.46
2019-05-17T01:45:16.691Z,10.00
2019-05-17T01:47:47.534Z,10.07
2019-05-17T01:50:17.497Z,10.11
2019-05-17T01:52:46.397Z,10.20
2019-05-17T01:55:17.204Z,10.11
2019-05-17T01:57:47.393Z,10.06
2019-05-17T02:00:17.546Z,10.04
2019-05-17T02:02:53.701Z,10.03
2019-05-17T02:05:22.243Z,10.06
2019-05-17T02:07:50.818Z,10.10
2019-05-17T02:10:19.637Z,10.14
2019-05-17T02:12:49.091Z,10.16
2019-05-17T02:15:18.201Z,10.17
2019-05-17T02:17:47.055Z,10.17
2019-05-17T02:20:17.074Z,10.16
2019-05-17T02:22:47.461Z,10.15
2019-05-17T02:25:17.772Z,10.11
2019-05-17T02:27:46.276Z,10.12
2019-05-17T02:30:15.501Z,10.13
2019-05-17T02:32:44.970Z,9.99
2019-05-17T02:35:15.090Z,9.96
2019-05-17T02:37:44.005Z,10.05
2019-05-17T02:40:14.449Z,10.05
2019-05-17T02:42:43.743Z,10.12
2019-05-17T02:45:13.435Z,10.20
2019-05-17T02:47:43.729Z,10.19
2019-05-17T02:50:13.353Z,10.15
2019-05-17T02:52:43.797Z,10.19
2019-05-17T02:55:13.096Z,10.23
2019-05-17T02:57:43.242Z,10.27
2019-05-17T03:00:13.639Z,10.31
2019-05-17T03:02:43.451Z,10.37
2019-05-17T03:05:13.138Z,10.39
2019-05-17T03:07:44.096Z,10.33
2019-05-17T03:10:22.767Z,10.33
2019-05-17T03:12:44.421Z,10.35
2019-05-17T03:15:13.315Z,10.31
2019-05-17T03:17:43.404Z,10.32
2019-05-17T03:20:13.730Z,10.31
2019-05-17T03:22:43.956Z,10.37
2019-05-17T03:25:13.936Z,10.36
2019-05-17T03:27:43.250Z,10.46
2019-05-17T03:30:17.161Z,10.50
2019-05-17T03:32:47.888Z,10.64
2019-05-17T03:35:17.284Z,10.54
2019-05-17T03:37:44.837Z,10.22
2019-05-17T03:40:34.787Z,10.02
2019-05-17T03:42:44.541Z,10.15
2019-05-17T03:45:13.892Z,10.22
2019-05-17T03:47:44.621Z,10.35
2019-05-17T03:50:13.809Z,10.41
2019-05-17T03:52:44.442Z,10.37
2019-05-17T03:55:13.593Z,10.30
2019-05-17T03:57:44.014Z,10.17
2019-05-17T04:00:13.472Z,10.19
2019-05-17T04:02:44.532Z,10.15
2019-05-17T04:05:13.038Z,10.23
2019-05-17T04:07:43.418Z,10.41
2019-05-17T04:10:15.040Z,10.61
2019-05-17T04:12:44.181Z,10.66
2019-05-17T04:15:14.675Z,10.86
2019-05-17T04:17:44.258Z,10.68
2019-05-17T04:20:13.990Z,10.61
2019-05-17T04:22:44.201Z,10.46
2019-05-17T04:25:13.843Z,10.45
2019-05-17T04:27:43.811Z,10.57
2019-05-17T04:30:13.112Z,10.70
2019-05-17T04:32:44.167Z,10.71
2019-05-17T04:35:13.501Z,10.82
2019-05-17T04:37:44.616Z,10.87
2019-05-17T04:40:14.073Z,10.97
2019-05-17T04:42:44.032Z,10.95
2019-05-17T04:45:13.394Z,10.71
2019-05-17T04:47:44.515Z,10.90
2019-05-17T04:50:13.490Z,11.02
2019-05-17T04:52:43.019Z,10.88
2019-05-17T04:55:13.564Z,10.89
2019-05-17T04:57:44.057Z,10.86
2019-05-17T05:00:13.511Z,10.89
2019-05-17T05:02:43.604Z,11.03
2019-05-17T05:05:13.917Z,11.08
2019-05-17T05:07:43.324Z,10.80
2019-05-17T05:10:14.007Z,10.96
2019-05-17T05:12:43.878Z,11.24
2019-05-17T05:15:12.890Z,11.27
2019-05-17T05:17:42.600Z,11.09
2019-05-17T05:20:13.267Z,10.84
2019-05-17T05:22:42.875Z,10.94
2019-05-17T05:25:12.498Z,11.19
2019-05-17T05:27:42.676Z,11.23
2019-05-17T05:30:12.167Z,11.06
2019-05-17T05:32:42.791Z,10.82
2019-05-17T05:35:12.373Z,10.92
2019-05-17T05:37:42.423Z,10.80
2019-05-17T05:40:12.620Z,11.05
2019-05-17T05:42:42.709Z,11.34
2019-05-17T05:45:12.360Z,11.47
2019-05-17T05:47:42.474Z,11.31
2019-05-17T05:50:12.697Z,11.36
2019-05-17T05:52:42.247Z,11.52
2019-05-17T05:55:12.339Z,11.63
2019-05-17T05:57:42.118Z,11.78
2019-05-17T06:00:13.443Z,11.62
2019-05-17T06:02:42.270Z,11.76
2019-05-17T06:05:14.675Z,11.89
2019-05-17T06:07:42.444Z,11.92
2019-05-17T06:10:12.933Z,12.01
2019-05-17T06:12:43.446Z,12.20
2019-05-17T06:15:12.995Z,12.22
2019-05-17T06:17:42.775Z,12.25
2019-05-17T06:20:12.282Z,12.47
2019-05-17T06:22:42.769Z,12.51
2019-05-17T06:25:14.871Z,12.47
2019-05-17T06:27:41.697Z,12.67
2019-05-17T06:30:12.587Z,12.97
2019-05-17T06:32:43.246Z,12.95
2019-05-17T06:35:12.634Z,12.73
2019-05-17T06:37:42.265Z,13.24
2019-05-17T06:40:13.104Z,13.57
2019-05-17T06:42:45.280Z,13.91
2019-05-17T06:45:13.129Z,14.15
2019-05-17T06:47:42.668Z,14.06
2019-05-17T06:50:14.333Z,13.24
2019-05-17T06:52:43.479Z,13.43
2019-05-17T06:55:13.031Z,13.41
2019-05-17T06:57:43.376Z,14.00
2019-05-17T07:00:19.750Z,14.06
2019-05-17T07:02:43.741Z,13.71
2019-05-17T07:05:14.096Z,14.65
2019-05-17T07:07:42.646Z,14.26
2019-05-17T07:10:12.267Z,13.88
2019-05-17T07:12:54.999Z,13.72
2019-05-17T07:15:11.625Z,13.76
2019-05-17T07:17:40.385Z,13.85
2019-05-17T07:20:10.317Z,13.92
2019-05-17T07:22:40.839Z,14.14
2019-05-17T07:25:10.726Z,14.33
2019-05-17T07:27:45.336Z,14.44
2019-05-17T07:30:11.103Z,14.14
2019-05-17T07:32:40.598Z,14.05
2019-05-17T07:35:10.825Z,14.36
2019-05-17T07:37:39.926Z,14.94
2019-05-17T07:40:10.847Z,15.21
2019-05-17T07:42:39.715Z,15.28
2019-05-17T07:45:10.091Z,15.11
2019-05-17T07:47:40.447Z,15.32
2019-05-17T07:50:11.497Z,15.25
2019-05-17T07:52:40.103Z,15.25
2019-05-17T07:55:10.975Z,15.00
2019-05-17T07:57:41.012Z,15.03
2019-05-17T08:00:10.488Z,14.76
2019-05-17T08:02:40.209Z,15.28
2019-05-17T08:05:10.520Z,15.77
2019-05-17T08:07:40.279Z,16.09
2019-05-17T08:10:11.048Z,16.09
2019-05-17T08:12:41.012Z,16.10
2019-05-17T08:15:11.183Z,15.57
2019-05-17T08:17:40.037Z,15.88
2019-05-17T08:20:10.342Z,16.42
2019-05-17T08:22:40.118Z,15.97
2019-05-17T08:25:10.251Z,16.07
2019-05-17T08:27:40.489Z,16.55
2019-05-17T08:30:11.940Z,17.33
2019-05-17T08:32:40.612Z,17.76
2019-05-17T08:35:11.332Z,17.97
2019-05-17T08:37:42.313Z,18.19
2019-05-17T08:40:10.782Z,18.39
2019-05-17T08:42:40.758Z,18.48
2019-05-17T08:45:09.966Z,18.03
2019-05-17T08:47:39.633Z,18.15
2019-05-17T08:50:11.255Z,18.54
2019-05-17T08:52:40.244Z,18.96
2019-05-17T08:55:09.836Z,19.02
2019-05-17T08:57:39.960Z,19.26
2019-05-17T09:00:10.692Z,18.63
2019-05-17T09:02:40.962Z,18.90
2019-05-17T09:05:10.221Z,18.75
2019-05-17T09:07:40.111Z,18.70
2019-05-17T09:10:09.925Z,19.02
2019-05-17T09:12:40.914Z,18.78
2019-05-17T09:15:10.673Z,18.28
2019-05-17T09:17:39.847Z,18.87
2019-05-17T09:20:10.581Z,19.57
2019-05-17T09:22:39.572Z,19.85
2019-05-17T09:25:13.516Z,19.53
2019-05-17T09:27:39.760Z,18.72
2019-05-17T09:30:10.707Z,19.14
2019-05-17T09:32:40.502Z,19.28
2019-05-17T09:35:09.981Z,19.32
2019-05-17T09:37:41.377Z,19.09
2019-05-17T09:40:09.658Z,19.20
2019-05-17T09:42:40.769Z,18.90
2019-05-17T09:45:09.594Z,18.76
2019-05-17T09:47:39.697Z,18.57
2019-05-17T09:50:10.006Z,18.23
2019-05-17T09:52:40.518Z,18.35
2019-05-17T09:55:09.968Z,18.93
2019-05-17T09:57:40.779Z,19.03
2019-05-17T10:00:10.159Z,20.41
2019-05-17T10:02:40.229Z,21.74
2019-05-17T10:05:10.681Z,21.98
2019-05-17T10:07:40.283Z,21.53
2019-05-17T10:10:10.515Z,21.00
2019-05-17T10:12:40.333Z,20.51
2019-05-17T10:15:10.366Z,20.69
2019-05-17T10:17:38.983Z,20.20
2019-05-17T10:20:10.499Z,20.79
2019-05-17T10:22:40.215Z,21.01
2019-05-17T10:25:09.679Z,21.83
2019-05-17T10:27:40.421Z,20.54
2019-05-17T10:30:10.563Z,20.73
2019-05-17T10:32:40.715Z,20.93
2019-05-17T10:35:10.247Z,20.59
2019-05-17T10:37:40.647Z,20.94
2019-05-17T10:40:10.740Z,22.55
2019-05-17T10:42:39.819Z,23.02
2019-05-17T10:45:10.865Z,23.93
2019-05-17T10:47:39.990Z,24.58
2019-05-17T10:50:10.889Z,24.32
2019-05-17T10:52:41.021Z,23.01
2019-05-17T10:55:10.795Z,23.06
2019-05-17T10:57:39.390Z,22.32
2019-05-17T11:00:10.075Z,21.63
2019-05-17T11:02:38.786Z,19.82
2019-05-17T11:05:07.621Z,19.95
2019-05-17T11:07:36.095Z,20.05
2019-05-17T11:10:06.111Z,19.86
2019-05-17T11:12:34.579Z,19.68
2019-05-17T11:15:11.009Z,19.84
2019-05-17T11:17:33.942Z,20.34
2019-05-17T11:20:02.536Z,20.81
2019-05-17T11:22:31.004Z,20.71
2019-05-17T11:24:59.493Z,21.56
2019-05-17T11:27:27.995Z,22.07
2019-05-17T11:29:56.448Z,22.12
2019-05-17T11:32:24.945Z,21.39
2019-05-17T11:34:53.423Z,21.67
2019-05-17T11:37:21.929Z,22.18
2019-05-17T11:39:50.401Z,21.94
2019-05-17T11:42:18.904Z,21.87
2019-05-17T11:44:47.384Z,21.68
2019-05-17T11:47:15.904Z,21.38
2019-05-17T11:49:44.377Z,21.69
2019-05-17T11:52:12.873Z,22.43
2019-05-17T11:54:41.360Z,22.69
2019-05-17T11:57:12.325Z,22.35
2019-05-17T11:59:40.126Z,21.62
2019-05-17T12:02:08.656Z,20.86
2019-05-17T12:04:37.503Z,20.84
2019-05-17T12:07:06.253Z,20.70
2019-05-17T12:09:37.803Z,20.56
2019-05-17T12:12:05.174Z,20.74
2019-05-17T12:14:34.765Z,20.61
2019-05-17T12:17:05.380Z,20.44
2019-05-17T12:19:37.263Z,19.78
2019-05-17T12:22:07.434Z,19.48
2019-05-17T12:24:36.457Z,19.29
2019-05-17T12:27:05.432Z,19.15
2019-05-17T12:29:34.340Z,19.35
2019-05-17T12:32:03.381Z,21.60
2019-05-17T12:34:31.919Z,22.26
2019-05-17T12:37:00.418Z,22.57
2019-05-17T12:39:28.901Z,22.92
2019-05-17T12:41:57.462Z,24.74
2019-05-17T12:44:26.089Z,28.68
2019-05-17T12:46:54.605Z,29.02
2019-05-17T12:49:23.109Z,27.82
2019-05-17T12:51:51.622Z,25.39
2019-05-17T12:54:20.100Z,24.05
2019-05-17T12:56:48.602Z,23.14
2019-05-17T12:59:17.151Z,22.98
2019-05-17T13:01:45.704Z,22.31
2019-05-17T13:04:14.202Z,22.32
2019-05-17T13:06:42.702Z,22.73
2019-05-17T13:09:11.250Z,22.66
2019-05-17T13:11:39.758Z,22.37
2019-05-17T13:14:08.247Z,21.91
2019-05-17T13:16:37.530Z,21.93
2019-05-17T13:19:05.997Z,22.56
2019-05-17T13:21:34.573Z,23.24
2019-05-17T13:24:03.051Z,23.59
2019-05-17T13:26:31.544Z,22.98
2019-05-17T13:29:00.021Z,22.71
2019-05-17T13:31:28.542Z,24.50
2019-05-17T13:33:57.026Z,25.91
2019-05-17T13:36:25.531Z,27.12
2019-05-17T13:38:54.015Z,30.82
2019-05-17T13:41:22.514Z,33.99
2019-05-17T13:43:50.994Z,34.65
2019-05-17T13:46:32.231Z,32.59
2019-05-17T13:48:49.851Z,30.11
2019-05-17T13:51:18.345Z,29.19
2019-05-17T13:53:46.816Z,30.70
2019-05-17T13:56:15.324Z,30.59
2019-05-17T13:58:43.801Z,28.95
2019-05-17T14:01:12.293Z,27.53
2019-05-17T14:03:40.776Z,25.87
2019-05-17T14:06:09.323Z,24.82
2019-05-17T14:08:37.756Z,24.14
2019-05-17T14:11:06.251Z,24.07
2019-05-17T14:13:34.743Z,23.59
2019-05-17T14:16:03.235Z,23.83
2019-05-17T14:18:31.705Z,25.89
2019-05-17T14:21:00.180Z,28.91
2019-05-17T14:23:30.097Z,31.33
2019-05-17T14:25:59.425Z,32.25
2019-05-17T14:28:27.904Z,32.47
2019-05-17T14:30:56.380Z,33.52
2019-05-17T14:33:24.892Z,32.66
2019-05-17T14:35:53.351Z,33.43
2019-05-17T14:38:21.857Z,32.26
2019-05-17T14:41:08.133Z,33.72
2019-05-17T14:43:20.547Z,34.04
2019-05-17T14:45:49.017Z,32.98
2019-05-17T14:48:17.516Z,33.55
2019-05-17T14:50:45.995Z,33.51
2019-05-17T14:53:14.504Z,31.74
2019-05-17T14:55:42.972Z,33.64
2019-05-17T14:58:11.484Z,32.23
2019-05-17T15:00:39.944Z,32.85
2019-05-17T15:03:08.447Z,34.28
2019-05-17T15:05:36.934Z,33.81
2019-05-17T15:08:05.437Z,32.94
2019-05-17T15:10:33.985Z,32.37
2019-05-17T15:13:02.497Z,33.65
2019-05-17T15:15:30.961Z,34.18
2019-05-17T15:17:59.710Z,32.21
2019-05-17T15:20:28.184Z,32.62
2019-05-17T15:22:56.677Z,30.75
2019-05-17T15:25:25.374Z,29.95
2019-05-17T15:27:54.175Z,27.96
2019-05-17T15:30:22.916Z,25.84
2019-05-17T15:32:51.529Z,25.69
2019-05-17T15:35:20.205Z,25.36
2019-05-17T15:37:48.967Z,25.01
2019-05-17T15:40:17.861Z,25.45
2019-05-17T15:42:46.630Z,27.54
2019-05-17T15:45:15.443Z,27.27
2019-05-17T15:47:44.159Z,26.37
2019-05-17T15:50:12.934Z,26.00
2019-05-17T15:52:41.670Z,28.21
2019-05-17T15:55:10.650Z,30.49
2019-05-17T15:57:39.400Z,31.51
2019-05-17T16:00:08.562Z,31.63
2019-05-17T16:02:37.270Z,30.53
2019-05-17T16:05:06.342Z,28.14
2019-05-17T16:07:35.098Z,26.37
2019-05-17T16:10:06.311Z,24.91
2019-05-17T16:12:34.815Z,24.05
2019-05-17T16:15:04.359Z,24.84
2019-05-17T16:17:32.864Z,26.51
2019-05-17T16:20:01.370Z,27.37
2019-05-17T16:22:29.845Z,27.62
2019-05-17T16:24:58.316Z,27.72
2019-05-17T16:27:26.828Z,28.40
2019-05-17T16:29:55.305Z,28.55
2019-05-17T16:32:23.816Z,28.01
2019-05-17T16:34:52.552Z,27.22
2019-05-17T16:37:21.120Z,26.90
2019-05-17T16:39:49.738Z,26.85
2019-05-17T16:42:18.222Z,28.47
2019-05-17T16:44:46.720Z,29.17
2019-05-17T16:47:15.198Z,28.57
2019-05-17T16:49:43.695Z,26.55
2019-05-17T16:52:12.186Z,25.78
2019-05-17T16:54:40.681Z,24.43
2019-05-17T16:57:09.162Z,23.70
2019-05-17T16:59:37.742Z,22.89
2019-05-17T17:02:06.361Z,22.27
2019-05-17T17:04:34.869Z,21.79
2019-05-17T17:07:03.348Z,21.25
2019-05-17T17:09:31.947Z,21.04
2019-05-17T17:12:00.505Z,20.62
2019-05-17T17:14:29.033Z,20.53
2019-05-17T17:16:57.512Z,20.28
2019-05-17T17:19:26.092Z,19.66
2019-05-17T17:21:54.572Z,19.79
2019-05-17T17:24:23.084Z,19.73
2019-05-17T17:26:51.590Z,19.62
2019-05-17T17:29:20.103Z,19.56
2019-05-17T17:31:48.590Z,19.42
2019-05-17T17:34:17.099Z,19.33
2019-05-17T17:36:45.584Z,19.33
2019-05-17T17:39:14.129Z,19.38
2019-05-17T17:41:42.616Z,19.32
2019-05-17T17:44:11.118Z,19.11
2019-05-17T17:46:39.603Z,19.01
2019-05-17T17:49:08.111Z,18.96
2019-05-17T17:51:36.766Z,18.94
2019-05-17T17:54:05.342Z,18.89
2019-05-17T17:56:33.890Z,18.63
2019-05-17T17:59:02.406Z,18.43
2019-05-17T18:01:30.881Z,18.20
2019-05-17T18:03:59.388Z,17.97
2019-05-17T18:06:27.896Z,17.80
2019-05-17T18:08:56.413Z,17.65
2019-05-17T18:11:24.887Z,17.48
2019-05-17T18:13:53.402Z,17.29
2019-05-17T18:16:21.877Z,17.12
2019-05-17T18:18:50.416Z,16.89
2019-05-17T18:21:18.885Z,16.69
2019-05-17T18:23:47.361Z,16.55
2019-05-17T18:26:15.895Z,16.44
2019-05-17T18:28:44.376Z,16.30
2019-05-17T18:31:12.901Z,16.21
2019-05-17T18:33:41.379Z,16.05
2019-05-17T18:36:09.888Z,15.90
2019-05-17T18:38:38.519Z,15.74
2019-05-17T18:41:07.104Z,15.62
2019-05-17T18:43:35.734Z,15.60
2019-05-17T18:46:04.394Z,15.53
2019-05-17T18:48:32.945Z,15.44
2019-05-17T18:51:01.453Z,15.25
2019-05-17T18:53:29.994Z,15.11
2019-05-17T18:55:58.583Z,14.95
2019-05-17T18:58:27.073Z,14.83
2019-05-17T19:00:55.649Z,14.62
2019-05-17T19:03:24.201Z,14.51
2019-05-17T19:05:52.778Z,14.45
2019-05-17T19:08:21.282Z,14.32
2019-05-17T19:10:49.799Z,14.12
2019-05-17T19:13:18.357Z,14.06
2019-05-17T19:15:46.863Z,13.84
2019-05-17T19:18:15.415Z,13.73
2019-05-17T19:20:43.991Z,13.62
2019-05-17T19:23:12.479Z,13.63
2019-05-17T19:25:41.018Z,13.58
2019-05-17T19:28:09.554Z,13.57
2019-05-17T19:30:38.066Z,13.61
2019-05-17T19:33:06.914Z,13.48
2019-05-17T19:35:35.420Z,13.36
2019-05-17T19:38:04.567Z,13.34
2019-05-17T19:40:33.159Z,13.35
2019-05-17T19:43:01.630Z,13.42
2019-05-17T19:45:30.140Z,13.36
2019-05-17T19:47:58.641Z,13.25
2019-05-17T19:50:27.141Z,13.20
2019-05-17T19:52:55.621Z,13.13
2019-05-17T19:55:24.133Z,13.04
2019-05-17T19:57:52.611Z,13.02
2019-05-17T20:00:22.526Z,13.00
2019-05-17T20:02:51.000Z,12.80
2019-05-17T20:05:19.579Z,12.78
2019-05-17T20:07:48.059Z,12.66
2019-05-17T20:10:17.714Z,12.62
2019-05-17T20:12:46.265Z,12.48
2019-05-17T20:15:17.812Z,12.33
2019-05-17T20:17:45.208Z,12.33
2019-05-17T20:20:14.027Z,12.20
2019-05-17T20:22:42.532Z,12.17
2019-05-17T20:25:11.347Z,12.17
2019-05-17T20:27:39.930Z,12.21
2019-05-17T20:30:09.445Z,12.11
2019-05-17T20:32:38.062Z,12.09
2019-05-17T20:35:07.779Z,11.98
2019-05-17T20:37:36.289Z,11.94
2019-05-17T20:40:06.937Z,11.93
2019-05-17T20:42:35.444Z,11.90
2019-05-17T20:45:08.012Z,11.98
2019-05-17T20:47:36.521Z,11.95
2019-05-17T20:50:08.865Z,11.89
2019-05-17T20:52:37.369Z,11.76
2019-05-17T20:55:06.982Z,11.73
2019-05-17T20:57:35.486Z,11.63
2019-05-17T21:00:05.959Z,11.60
2019-05-17T21:02:34.498Z,11.36
2019-05-17T21:05:03.102Z,11.34
2019-05-17T21:07:31.605Z,11.36
2019-05-17T21:10:00.089Z,11.34
2019-05-17T21:12:28.596Z,11.31
2019-05-17T21:14:57.084Z,11.23
2019-05-17T21:17:25.579Z,11.19
2019-05-17T21:19:54.064Z,11.09
2019-05-17T21:22:22.565Z,11.11
2019-05-17T21:24:51.043Z,11.03
2019-05-17T21:27:19.540Z,11.00
2019-05-17T21:29:48.017Z,10.89
2019-05-17T21:32:16.531Z,10.89
2019-05-17T21:34:45.024Z,10.88
2019-05-17T21:37:13.530Z,10.85
2019-05-17T21:39:42.193Z,10.80
2019-05-17T21:42:11.510Z,10.74
2019-05-17T21:44:40.038Z,10.71
2019-05-17T21:47:08.646Z,10.54
2019-05-17T21:49:37.142Z,10.52
2019-05-17T21:52:06.113Z,10.58
2019-05-17T21:54:34.594Z,10.47
2019-05-17T21:57:03.108Z,10.27
2019-05-17T21:59:31.652Z,10.15
2019-05-17T22:02:00.699Z,10.17
2019-05-17T22:04:29.185Z,10.13
2019-05-17T22:06:57.694Z,10.14
2019-05-17T22:09:26.172Z,10.10
2019-05-17T22:11:59.032Z,10.06
2019-05-17T22:14:27.515Z,10.33
2019-05-17T22:16:56.024Z,10.39
2019-05-17T22:19:24.509Z,10.39
2019-05-17T22:21:52.987Z,10.56
2019-05-17T22:24:21.493Z,10.78
2019-05-17T22:26:49.976Z,10.94
2019-05-17T22:29:18.484Z,10.98
2019-05-17T22:31:46.963Z,11.06
2019-05-17T22:34:15.474Z,10.98
2019-05-17T22:36:43.957Z,10.85
2019-05-17T22:39:12.464Z,10.74
2019-05-17T22:41:40.947Z,10.68
2019-05-17T22:44:09.462Z,10.74
2019-05-17T22:46:37.939Z,10.53
2019-05-17T22:49:06.473Z,10.59
2019-05-17T22:51:34.938Z,10.55
2019-05-17T22:54:03.519Z,10.49
2019-05-17T22:56:32.002Z,10.43
2019-05-17T22:59:00.508Z,10.30
2019-05-17T23:01:29.002Z,10.18
2019-05-17T23:03:57.501Z,10.08
2019-05-17T23:06:25.991Z,10.08
2019-05-17T23:08:54.519Z,9.99
2019-05-17T23:11:23.237Z,9.76
2019-05-17T23:13:51.735Z,9.52
2019-05-17T23:16:20.214Z,9.59
2019-05-17T23:19:06.020Z,9.49
2019-05-17T23:21:34.497Z,9.62
2019-05-17T23:24:03.010Z,9.78
2019-05-17T23:26:31.552Z,9.61
2019-05-17T23:29:00.166Z,9.60
2019-05-17T23:31:28.687Z,9.58
2019-05-17T23:33:57.191Z,9.52
2019-05-17T23:36:25.676Z,9.47
2019-05-17T23:38:54.173Z,9.34
2019-05-17T23:41:22.698Z,9.22
2019-05-17T23:43:51.177Z,9.21
2019-05-17T23:46:19.661Z,9.26
2019-05-17T23:48:48.169Z,9.02
2019-05-17T23:51:16.648Z,9.11
2019-05-17T23:53:45.160Z,9.06
2019-05-17T23:56:13.640Z,9.02
2019-05-17T23:58:42.154Z,8.80
